createdAt,value
2022-12-11T00:00:57.922Z,13.77
2022-12-11T00:03:28.347Z,13.93
2022-12-11T00:06:16.484Z,14.13
2022-12-11T00:08:48.876Z,13.77
2022-12-11T00:11:39.351Z,13.30
2022-12-11T00:14:06.982Z,15.80
2022-12-11T00:16:34.764Z,13.77
2022-12-11T00:19:38.920Z,13.87
2022-12-11T00:25:10.629Z,12.77
2022-12-11T00:27:39.423Z,13.60
2022-12-11T00:30:08.362Z,14.73
2022-12-11T00:32:37.775Z,14.90
2022-12-11T00:35:06.136Z,13.27
2022-12-11T00:37:35.246Z,14.20
2022-12-11T00:40:03.151Z,13.47
2022-12-11T00:42:30.834Z,13.77
2022-12-11T00:44:58.456Z,14.63
2022-12-11T00:47:26.146Z,13.53
2022-12-11T00:49:53.734Z,14.63
2022-12-11T00:52:21.371Z,14.07
2022-12-11T00:54:50.383Z,14.57
2022-12-11T00:57:17.977Z,13.73
2022-12-11T00:59:45.565Z,14.13
2022-12-11T01:02:13.311Z,13.97
2022-12-11T01:04:40.916Z,13.73
2022-12-11T01:07:08.603Z,13.93
2022-12-11T01:09:53.922Z,12.97
2022-12-11T01:12:22.948Z,13.80
2022-12-11T01:14:50.733Z,12.87
2022-12-11T01:17:18.312Z,13.10
2022-12-11T01:19:46.052Z,12.87
2022-12-11T01:22:13.681Z,13.77
2022-12-11T01:24:41.266Z,12.00
2022-12-11T01:27:09.143Z,12.17
2022-12-11T01:29:38.116Z,12.10
2022-12-11T01:32:05.843Z,12.57
2022-12-11T01:34:34.346Z,12.47
2022-12-11T01:37:01.933Z,12.13
2022-12-11T01:39:29.675Z,12.23
2022-12-11T01:41:58.297Z,13.93
2022-12-11T01:45:08.218Z,12.10
2022-12-11T01:47:37.447Z,12.07
2022-12-11T01:50:05.523Z,12.50
2022-12-11T01:52:33.182Z,12.00
2022-12-11T01:55:01.122Z,12.23
2022-12-11T01:57:28.740Z,12.60
2022-12-11T02:00:10.764Z,12.40
2022-12-11T02:03:30.327Z,12.10
2022-12-11T02:06:02.434Z,11.67
2022-12-11T02:08:30.706Z,12.03
2022-12-11T02:11:07.402Z,11.00
2022-12-11T02:13:42.751Z,11.27
2022-12-11T02:16:19.262Z,11.20
2022-12-11T02:18:53.067Z,10.67
2022-12-11T02:21:27.033Z,10.93
2022-12-11T02:24:17.923Z,10.73
2022-12-11T02:27:01.265Z,11.63
2022-12-11T02:29:36.636Z,11.97
2022-12-11T02:32:09.978Z,11.57
2022-12-11T02:34:43.134Z,11.23
2022-12-11T02:37:14.473Z,10.37
2022-12-11T02:39:44.545Z,10.73
2022-12-11T02:42:14.013Z,10.77
2022-12-11T02:44:46.343Z,11.87
2022-12-11T02:47:18.622Z,10.90
2022-12-11T02:49:50.214Z,11.07
2022-12-11T02:52:24.135Z,10.53
2022-12-11T02:54:56.162Z,11.33
2022-12-11T02:57:28.691Z,10.43
2022-12-11T02:59:57.813Z,10.53
2022-12-11T03:02:25.656Z,9.77
2022-12-11T03:04:53.695Z,10.50
2022-12-11T03:07:25.477Z,10.60
2022-12-11T03:09:53.575Z,9.47
2022-12-11T03:12:25.156Z,10.73
2022-12-11T03:14:52.915Z,9.33
2022-12-11T03:17:24.200Z,9.57
2022-12-11T03:20:00.458Z,10.03
2022-12-11T03:22:34.844Z,9.47
2022-12-11T03:25:05.522Z,9.53
2022-12-11T03:27:38.745Z,9.97
2022-12-11T03:30:11.580Z,8.87
2022-12-11T03:32:47.167Z,9.13
2022-12-11T03:35:21.009Z,8.53
2022-12-11T03:37:51.323Z,10.13
2022-12-11T03:40:21.435Z,9.73
2022-12-11T03:42:51.884Z,9.60
2022-12-11T03:45:21.745Z,9.67
2022-12-11T03:47:51.827Z,10.13
2022-12-11T03:50:21.282Z,10.13
2022-12-11T03:52:51.559Z,10.00
2022-12-11T03:55:22.131Z,9.10
2022-12-11T03:57:50.220Z,9.10
2022-12-11T04:00:20.883Z,8.97
2022-12-11T04:03:13.710Z,10.20
2022-12-11T04:05:43.011Z,9.70
2022-12-11T04:08:11.277Z,8.43
2022-12-11T04:10:39.064Z,8.90
2022-12-11T04:13:06.679Z,9.13
2022-12-11T04:15:33.471Z,9.00
2022-12-11T04:18:20.025Z,8.73
2022-12-11T04:21:05.375Z,8.93
2022-12-11T04:23:50.718Z,8.17
2022-12-11T04:26:20.665Z,8.60
2022-12-11T04:28:49.630Z,8.50
2022-12-11T04:31:19.433Z,9.10
2022-12-11T04:33:49.304Z,8.50
2022-12-11T04:36:17.003Z,9.10
2022-12-11T04:38:44.574Z,8.73
2022-12-11T04:41:13.827Z,8.50
2022-12-11T04:43:41.497Z,8.63
2022-12-11T04:46:11.617Z,8.30
2022-12-11T04:48:40.213Z,8.30
2022-12-11T04:51:09.944Z,8.17
2022-12-11T04:53:37.774Z,7.80
2022-12-11T04:56:06.670Z,7.73
2022-12-11T04:58:35.684Z,6.87
2022-12-11T05:01:08.597Z,6.93
2022-12-11T05:03:36.780Z,6.47
2022-12-11T05:06:05.219Z,5.93
2022-12-11T05:08:36.830Z,6.17
2022-12-11T05:11:06.927Z,6.47
2022-12-11T05:13:34.786Z,6.13
2022-12-11T05:16:05.073Z,5.40
2022-12-11T05:18:32.894Z,6.27
2022-12-11T05:21:02.437Z,6.00
2022-12-11T05:23:30.699Z,5.27
2022-12-11T05:26:01.868Z,4.97
2022-12-11T05:28:32.868Z,5.47
2022-12-11T05:31:02.237Z,5.27
2022-12-11T05:33:30.678Z,5.27
2022-12-11T05:35:58.596Z,5.57
2022-12-11T05:38:26.599Z,5.90
2022-12-11T05:40:59.771Z,5.50
2022-12-11T05:43:28.830Z,5.80
2022-12-11T05:45:58.296Z,5.80
2022-12-11T05:48:25.913Z,5.90
2022-12-11T05:51:00.184Z,5.77
2022-12-11T05:53:27.892Z,6.23
2022-12-11T05:55:56.036Z,6.27
2022-12-11T05:58:25.053Z,5.47
2022-12-11T06:00:52.680Z,5.60
2022-12-11T06:03:20.346Z,6.00
2022-12-11T06:05:47.980Z,5.77
2022-12-11T06:08:15.707Z,5.20
2022-12-11T06:10:46.824Z,5.97
2022-12-11T06:13:14.822Z,5.87
2022-12-11T06:15:43.889Z,6.00
2022-12-11T06:18:11.575Z,6.00
2022-12-11T06:20:39.710Z,5.33
2022-12-11T06:23:07.332Z,5.57
2022-12-11T06:25:35.287Z,5.87
2022-12-11T06:28:02.924Z,6.17
2022-12-11T06:30:39.074Z,6.80
2022-12-11T06:33:08.660Z,6.57
2022-12-11T06:35:41.962Z,7.10
2022-12-11T06:38:10.546Z,7.03
2022-12-11T06:40:38.258Z,6.70
2022-12-11T06:43:05.875Z,7.07
2022-12-11T06:45:33.638Z,8.47
2022-12-11T06:48:01.361Z,8.80
2022-12-11T06:50:30.362Z,8.30
2022-12-11T06:52:58.324Z,8.80
2022-12-11T06:55:25.918Z,8.63
2022-12-11T06:57:54.009Z,8.23
2022-12-11T07:00:21.660Z,9.57
2022-12-11T07:02:51.365Z,8.63
2022-12-11T07:05:19.105Z,9.40
2022-12-11T07:07:48.154Z,8.43
2022-12-11T07:10:15.787Z,10.17
2022-12-11T07:12:43.689Z,9.67
2022-12-11T07:15:12.281Z,9.90
2022-12-11T07:17:40.236Z,8.83
2022-12-11T07:20:09.148Z,9.63
2022-12-11T07:22:41.637Z,9.20
2022-12-11T07:25:13.892Z,9.27
2022-12-11T07:27:42.479Z,10.13
2022-12-11T07:30:11.673Z,9.33
2022-12-11T07:38:31.142Z,9.53
2022-12-11T07:41:03.543Z,9.70
2022-12-11T07:43:31.204Z,9.03
2022-12-11T07:46:01.906Z,9.00
2022-12-11T07:48:29.643Z,9.03
2022-12-11T07:50:57.462Z,9.47
2022-12-11T07:53:25.470Z,9.03
2022-12-11T07:55:53.072Z,9.60
2022-12-11T07:58:22.075Z,9.17
2022-12-11T08:00:49.844Z,9.50
2022-12-11T08:03:17.464Z,10.03
2022-12-11T08:05:49.420Z,10.57
2022-12-11T08:08:17.186Z,9.80
2022-12-11T08:10:45.302Z,10.90
2022-12-11T08:13:13.333Z,10.03
2022-12-11T08:15:42.275Z,10.30
2022-12-11T08:18:09.940Z,9.90
2022-12-11T08:20:38.943Z,9.70
2022-12-11T08:23:06.658Z,10.57
2022-12-11T08:25:34.264Z,9.93
2022-12-11T08:28:01.927Z,11.00
2022-12-11T08:30:29.594Z,11.03
2022-12-11T08:32:59.693Z,10.00
2022-12-11T08:35:28.025Z,10.00
2022-12-11T08:37:55.679Z,9.57
2022-12-11T08:40:38.296Z,10.57
2022-12-11T09:02:58.836Z,9.23
2022-12-11T09:05:27.544Z,8.30
2022-12-11T09:07:55.228Z,9.43
2022-12-11T09:10:22.931Z,8.70
2022-12-11T09:12:50.733Z,8.67
2022-12-11T09:15:20.029Z,8.30
2022-12-11T09:17:47.681Z,9.23
2022-12-11T09:20:15.497Z,8.77
2022-12-11T09:22:43.817Z,8.30
2022-12-11T09:25:11.628Z,8.70
2022-12-11T09:27:39.437Z,8.27
2022-12-11T09:30:08.888Z,7.60
2022-12-11T09:32:37.851Z,7.60
2022-12-11T09:35:06.346Z,7.73
2022-12-11T09:37:34.270Z,8.13
2022-12-11T09:40:07.254Z,8.00
2022-12-11T09:42:50.699Z,7.77
2022-12-11T09:45:18.852Z,7.93
2022-12-11T09:47:53.235Z,8.63
2022-12-11T09:50:24.179Z,7.73
2022-12-11T09:53:06.063Z,13.77
2022-12-11T09:55:39.929Z,12.57
2022-12-11T09:58:15.518Z,8.20
2022-12-11T10:00:48.563Z,9.93
2022-12-11T10:03:45.716Z,10.67
2022-12-11T10:06:18.734Z,8.63
2022-12-11T10:08:56.377Z,8.43
2022-12-11T10:11:41.919Z,7.10
2022-12-11T10:14:15.304Z,18.43
2022-12-11T10:16:46.493Z,11.33
2022-12-11T10:19:20.564Z,12.63
2022-12-11T10:21:50.267Z,7.63
2022-12-11T10:25:05.703Z,7.00
2022-12-11T10:27:19.383Z,7.33
2022-12-11T10:29:47.548Z,7.50
2022-12-11T10:32:24.511Z,7.57
2022-12-11T10:35:00.796Z,8.00
2022-12-11T10:37:28.800Z,8.13
2022-12-11T10:39:56.371Z,6.87
2022-12-11T10:42:24.400Z,7.50
2022-12-11T10:45:00.428Z,9.57
2022-12-11T10:47:28.343Z,8.03
2022-12-11T10:49:59.461Z,10.27
2022-12-11T10:52:31.587Z,12.80
2022-12-11T10:55:02.553Z,6.87
2022-12-11T10:57:32.388Z,11.40
2022-12-11T11:00:01.502Z,11.13
2022-12-11T11:02:32.377Z,14.17
2022-12-11T11:05:13.458Z,6.10
2022-12-11T11:07:41.392Z,6.80
2022-12-11T11:10:17.999Z,6.87
2022-12-11T11:12:47.715Z,9.97
2022-12-11T11:15:19.395Z,7.03
2022-12-11T11:17:54.845Z,6.47
2022-12-11T11:20:26.493Z,6.40
2022-12-11T11:22:57.999Z,7.13
2022-12-11T11:25:27.309Z,7.10
2022-12-11T11:27:57.444Z,7.63
2022-12-11T11:30:27.316Z,7.80
2022-12-11T11:32:57.464Z,8.57
2022-12-11T11:35:28.072Z,10.30
2022-12-11T11:38:03.487Z,12.97
2022-12-11T11:40:32.710Z,8.53
2022-12-11T11:43:08.461Z,11.73
2022-12-11T11:45:44.297Z,9.97
2022-12-11T11:48:29.680Z,8.67
2022-12-11T11:50:59.382Z,7.13
2022-12-11T11:53:32.991Z,22.10
2022-12-11T11:56:08.156Z,15.70
2022-12-11T11:58:41.869Z,8.87
2022-12-11T12:01:16.029Z,13.23
2022-12-11T12:03:43.972Z,12.63
2022-12-11T12:06:21.825Z,16.80
2022-12-11T12:08:59.588Z,8.70
2022-12-11T12:11:34.792Z,19.90
2022-12-11T12:14:35.883Z,9.63
2022-12-11T12:17:13.552Z,6.10
2022-12-11T12:19:51.083Z,6.57
2022-12-11T12:22:37.817Z,5.10
2022-12-11T12:25:17.599Z,5.50
2022-12-11T12:27:54.990Z,6.20
2022-12-11T12:30:23.874Z,7.27
2022-12-11T12:33:12.377Z,5.20
2022-12-11T12:35:50.641Z,5.23
2022-12-11T12:38:25.337Z,5.37
2022-12-11T12:41:07.590Z,4.83
2022-12-11T12:43:54.185Z,4.30
2022-12-11T12:46:34.982Z,4.53
2022-12-11T12:49:03.750Z,4.37
2022-12-11T12:51:31.961Z,4.20
2022-12-11T12:54:09.016Z,3.70
2022-12-11T12:56:40.626Z,3.63
2022-12-11T12:59:19.806Z,4.50
2022-12-11T13:01:49.514Z,4.07
2022-12-11T13:04:54.392Z,4.20
2022-12-11T13:07:23.271Z,4.90
2022-12-11T13:10:00.799Z,5.53
2022-12-11T13:12:46.217Z,5.00
2022-12-11T13:15:34.314Z,5.00
2022-12-11T13:18:03.697Z,5.50
2022-12-11T13:20:33.701Z,5.03
2022-12-11T13:23:19.603Z,5.73
2022-12-11T13:25:52.511Z,5.63
2022-12-11T13:28:27.279Z,5.23
2022-12-11T13:31:03.258Z,4.97
2022-12-11T13:33:31.584Z,5.27
2022-12-11T13:36:30.110Z,5.33
2022-12-11T13:39:01.981Z,5.03
2022-12-11T13:41:32.976Z,5.03
2022-12-11T13:44:01.096Z,5.43
2022-12-11T13:46:32.355Z,4.97
2022-12-11T13:49:02.237Z,4.70
2022-12-11T13:52:29.291Z,4.37
2022-12-11T13:54:59.155Z,4.50
2022-12-11T13:57:29.140Z,4.60
2022-12-11T13:59:59.420Z,3.90
2022-12-11T14:02:30.869Z,3.87
2022-12-11T14:05:01.107Z,4.10
2022-12-11T14:07:32.258Z,3.43
2022-12-11T14:10:03.297Z,4.80
2022-12-11T14:12:33.462Z,4.03
2022-12-11T14:15:03.255Z,3.80
2022-12-11T14:17:33.189Z,3.43
2022-12-11T14:20:05.667Z,3.87
2022-12-11T14:22:33.375Z,4.50
2022-12-11T14:25:03.730Z,4.03
2022-12-11T14:27:32.741Z,4.17
2022-12-11T14:30:11.710Z,4.27
2022-12-11T14:32:45.308Z,4.73
2022-12-11T14:35:25.201Z,4.37
2022-12-11T14:37:53.992Z,4.57
2022-12-11T14:40:25.469Z,4.67
2022-12-11T14:43:00.433Z,4.27
2022-12-11T14:45:33.739Z,5.03
2022-12-11T14:48:03.212Z,4.57
2022-12-11T14:50:37.356Z,3.90
2022-12-11T14:53:09.852Z,4.60
2022-12-11T14:55:40.430Z,4.13
2022-12-11T14:58:17.515Z,4.90
2022-12-11T15:07:30.358Z,4.93
2022-12-11T15:09:58.007Z,5.03
2022-12-11T15:12:25.742Z,5.20
2022-12-11T15:14:57.721Z,5.87
2022-12-11T15:17:27.055Z,5.23
2022-12-11T15:19:57.923Z,5.53
2022-12-11T15:22:30.439Z,4.57
2022-12-11T15:24:58.452Z,6.17
2022-12-11T15:27:36.790Z,4.73
2022-12-11T15:30:17.637Z,4.60
2022-12-11T15:32:45.315Z,5.20
2022-12-11T15:35:23.416Z,4.97
2022-12-11T15:37:54.267Z,5.70
2022-12-11T15:40:22.211Z,5.93
2022-12-11T15:42:50.182Z,6.00
2022-12-11T15:45:21.031Z,6.03
2022-12-11T15:47:49.466Z,5.07
2022-12-11T15:50:18.717Z,5.87
2022-12-11T15:52:46.651Z,5.60
2022-12-11T15:55:14.885Z,5.70
2022-12-11T15:57:47.722Z,5.67
2022-12-11T16:00:16.543Z,5.47
2022-12-11T16:02:46.099Z,6.23
2022-12-11T16:05:14.489Z,6.33
2022-12-11T16:07:43.577Z,6.13
2022-12-11T16:10:15.517Z,5.87
2022-12-11T16:12:43.410Z,6.80
2022-12-11T16:15:12.812Z,6.13
2022-12-11T16:17:42.834Z,6.27
2022-12-11T16:20:14.030Z,6.67
2022-12-11T16:22:41.844Z,6.40
2022-12-11T16:25:09.972Z,6.43
2022-12-11T16:27:37.898Z,6.13
2022-12-11T16:32:46.778Z,6.63
2022-12-11T16:35:15.981Z,6.93
2022-12-11T16:37:45.269Z,6.87
2022-12-11T16:40:14.515Z,6.80
2022-12-11T16:42:47.138Z,7.00
2022-12-11T16:45:16.579Z,6.93
2022-12-11T16:47:44.576Z,7.07
2022-12-11T16:50:18.534Z,7.00
2022-12-11T16:52:48.054Z,7.17
2022-12-11T16:55:16.017Z,6.80
2022-12-11T16:57:43.666Z,6.67
2022-12-11T17:00:13.281Z,7.23
2022-12-11T17:02:41.069Z,7.90
2022-12-11T17:05:09.273Z,7.07
2022-12-11T17:07:37.105Z,7.37
2022-12-11T17:10:07.010Z,7.43
2022-12-11T17:12:34.647Z,7.77
2022-12-11T17:15:02.315Z,6.90
2022-12-11T17:17:45.295Z,7.27
2022-12-11T17:20:13.169Z,6.90
2022-12-11T17:23:13.244Z,7.27
2022-12-11T17:25:47.512Z,7.50
2022-12-11T17:28:15.319Z,8.23
2022-12-11T17:30:49.039Z,8.53
2022-12-11T17:33:18.638Z,7.73
2022-12-11T17:35:46.836Z,7.37
2022-12-11T17:38:15.852Z,7.90
2022-12-11T17:40:44.815Z,7.67
2022-12-11T17:43:20.832Z,8.30
2022-12-11T17:45:52.427Z,8.40
2022-12-11T17:48:22.320Z,8.67
2022-12-11T17:51:27.429Z,7.07
2022-12-11T17:53:57.218Z,7.53
2022-12-11T17:56:25.629Z,7.73
2022-12-11T17:58:54.847Z,7.83
2022-12-11T18:01:22.814Z,7.53
2022-12-11T18:03:50.522Z,7.47
2022-12-11T18:06:18.554Z,7.47
2022-12-11T18:08:46.506Z,7.60
2022-12-11T18:11:16.404Z,7.00
2022-12-11T18:13:45.833Z,7.73
2022-12-11T18:16:18.118Z,7.57
2022-12-11T18:18:47.076Z,8.20
2022-12-11T18:21:17.260Z,7.70
2022-12-11T18:23:44.940Z,6.67
2022-12-11T18:26:14.449Z,7.63
2022-12-11T18:28:42.224Z,7.43
2022-12-11T18:31:10.868Z,8.03
2022-12-11T18:33:41.884Z,7.47
2022-12-11T18:36:10.576Z,8.43
2022-12-11T18:38:38.568Z,7.90
2022-12-11T18:41:07.784Z,7.60
2022-12-11T18:43:36.261Z,7.90
2022-12-11T18:46:07.391Z,7.37
2022-12-11T18:48:35.242Z,7.67
2022-12-11T18:51:07.860Z,8.03
2022-12-11T18:53:36.071Z,7.70
2022-12-11T18:56:07.178Z,7.73
2022-12-11T18:58:34.905Z,7.80
2022-12-11T19:01:07.993Z,7.80
2022-12-11T19:03:35.845Z,7.67
2022-12-11T19:06:09.725Z,7.53
2022-12-11T19:08:37.674Z,7.40
2022-12-11T19:11:06.950Z,7.40
2022-12-11T19:13:35.323Z,7.37
2022-12-11T19:16:03.007Z,8.20
2022-12-11T19:18:30.731Z,7.37
2022-12-11T19:21:08.128Z,7.87
2022-12-11T19:23:37.636Z,7.90
2022-12-11T19:26:05.769Z,8.17
2022-12-11T19:28:34.330Z,8.50
2022-12-11T19:31:18.196Z,8.37
2022-12-11T19:33:46.749Z,9.10
2022-12-11T19:36:18.225Z,9.07
2022-12-11T19:38:47.750Z,8.43
2022-12-11T19:41:19.119Z,7.83
2022-12-11T19:43:47.139Z,8.80
2022-12-11T19:46:15.847Z,8.57
2022-12-11T19:48:43.839Z,8.27
2022-12-11T19:51:14.533Z,7.97
2022-12-11T19:54:07.603Z,8.03
2022-12-11T20:00:45.617Z,8.47
2022-12-11T20:03:40.226Z,8.87
2022-12-11T20:06:52.752Z,8.40
2022-12-11T20:09:33.595Z,8.40
2022-12-11T20:12:21.516Z,7.93
2022-12-11T20:14:49.125Z,8.30
2022-12-11T20:17:18.231Z,7.97
2022-12-11T20:19:45.987Z,8.67
2022-12-11T20:22:14.407Z,7.67
2022-12-11T20:24:42.293Z,8.43
2022-12-11T20:27:12.307Z,8.13
2022-12-11T20:29:39.959Z,7.90
2022-12-11T20:32:11.214Z,8.83
2022-12-11T20:34:40.347Z,8.30
2022-12-11T20:37:08.048Z,7.67
2022-12-11T20:39:35.807Z,7.80
2022-12-11T20:42:04.875Z,8.03
2022-12-11T20:44:36.285Z,8.40
2022-12-11T20:47:04.280Z,8.30
2022-12-11T20:49:32.585Z,9.20
2022-12-11T20:52:01.717Z,8.13
2022-12-11T20:54:29.428Z,8.93
2022-12-11T20:56:57.067Z,8.50
2022-12-11T20:59:26.071Z,7.63
2022-12-11T21:01:53.713Z,8.37
2022-12-11T21:04:21.491Z,9.13
2022-12-11T21:06:55.800Z,8.47
2022-12-11T21:09:28.020Z,8.73
2022-12-11T21:11:57.983Z,8.90
2022-12-11T21:14:25.617Z,8.40
2022-12-11T21:16:53.533Z,8.33
2022-12-11T21:19:21.198Z,8.40
2022-12-11T21:21:49.680Z,8.40
2022-12-11T21:24:19.308Z,8.13
2022-12-11T21:26:49.662Z,8.63
2022-12-11T21:29:18.303Z,8.30
2022-12-11T21:31:46.000Z,9.13
2022-12-11T21:34:13.942Z,8.00
2022-12-11T21:36:41.684Z,8.03
2022-12-11T21:39:09.318Z,8.20
2022-12-11T21:41:36.993Z,8.13
2022-12-11T21:46:55.248Z,8.03
2022-12-11T21:49:25.348Z,7.73
2022-12-11T21:51:53.034Z,7.80
2022-12-11T21:54:21.083Z,8.73
2022-12-11T21:56:48.986Z,8.23
2022-12-11T21:59:17.961Z,8.37
2022-12-11T22:01:47.035Z,8.30
2022-12-11T22:04:15.765Z,8.23
2022-12-11T22:06:47.687Z,8.10
2022-12-11T22:09:21.634Z,8.07
2022-12-11T22:11:53.710Z,8.57
2022-12-11T22:14:25.995Z,8.03
2022-12-11T22:16:53.730Z,7.67
2022-12-11T22:19:32.504Z,8.03
2022-12-11T22:22:00.744Z,7.87
2022-12-11T22:24:38.953Z,7.93
2022-12-11T22:27:07.342Z,8.37
2022-12-11T22:29:37.133Z,7.97
2022-12-11T22:32:04.988Z,8.20
2022-12-11T22:34:32.720Z,8.00
2022-12-11T22:37:00.304Z,7.90
2022-12-11T22:39:27.976Z,7.47
2022-12-11T22:41:55.682Z,7.97
2022-12-11T22:44:23.373Z,8.00
2022-12-11T22:46:52.402Z,8.47
2022-12-11T22:49:20.410Z,9.03
2022-12-11T22:51:48.892Z,8.13
2022-12-11T22:54:16.646Z,7.67
2022-12-11T22:56:44.593Z,8.03
2022-12-11T22:59:12.550Z,9.07
2022-12-11T23:01:40.413Z,8.60
2022-12-11T23:04:09.436Z,7.90
2022-12-11T23:06:37.063Z,7.60
2022-12-11T23:09:04.984Z,8.47
2022-12-11T23:11:36.286Z,9.07
2022-12-11T23:14:04.862Z,8.30
2022-12-11T23:16:32.977Z,8.33
2022-12-11T23:19:01.270Z,7.03
2022-12-11T23:21:30.851Z,9.00
2022-12-11T23:23:59.199Z,8.90
2022-12-11T23:26:27.434Z,7.67
2022-12-11T23:28:56.797Z,7.83
2022-12-11T23:31:26.077Z,7.70
2022-12-11T23:33:54.219Z,8.87
2022-12-11T23:36:22.560Z,7.77
2022-12-11T23:38:54.746Z,7.90
2022-12-11T23:41:23.224Z,8.10
2022-12-11T23:43:50.903Z,7.53
2022-12-11T23:46:21.665Z,7.97
2022-12-11T23:48:49.871Z,8.30
2022-12-11T23:51:19.485Z,7.57
2022-12-11T23:53:47.269Z,7.70
2022-12-11T23:56:18.614Z,8.10
2022-12-11T23:58:46.388Z,8.20
